createdAt,value
2018-12-10T00:04:07.651Z,1.00
2018-12-10T00:06:36.794Z,1.10
2018-12-10T00:09:06.884Z,1.73
2018-12-10T00:11:36.582Z,1.37
2018-12-10T00:14:06.850Z,1.60
2018-12-10T00:16:36.128Z,1.20
2018-12-10T00:19:05.233Z,1.17
2018-12-10T00:21:34.522Z,0.70
2018-12-10T00:24:03.931Z,1.00
2018-12-10T00:26:33.113Z,0.97
2018-12-10T00:29:03.259Z,0.90
2018-12-10T00:31:32.460Z,0.67
2018-12-10T00:34:01.531Z,1.60
2018-12-10T00:36:30.924Z,1.03
2018-12-10T00:39:00.027Z,1.07
2018-12-10T00:41:34.125Z,1.50
2018-12-10T00:44:04.976Z,1.10
2018-12-10T00:46:35.191Z,1.40
2018-12-10T01:12:06.701Z,0.77
2018-12-10T01:14:36.046Z,1.03
2018-12-10T01:17:05.191Z,1.17
2018-12-10T01:19:34.542Z,1.70
2018-12-10T01:22:03.794Z,1.37
2018-12-10T01:24:34.559Z,1.17
2018-12-10T01:27:03.726Z,1.23
2018-12-10T01:29:33.022Z,1.03
2018-12-10T01:32:02.775Z,1.13
2018-12-10T01:34:32.040Z,1.47
2018-12-10T01:37:01.260Z,1.27
2018-12-10T01:39:30.464Z,0.83
2018-12-10T01:41:59.758Z,1.20
2018-12-10T01:44:28.931Z,0.97
2018-12-10T01:46:58.136Z,1.77
2018-12-10T01:49:27.840Z,1.00
2018-12-10T01:51:57.035Z,1.70
2018-12-10T01:54:26.265Z,0.90
2018-12-10T01:56:55.485Z,1.00
2018-12-10T01:59:24.748Z,1.20
2018-12-10T02:01:54.378Z,0.90
2018-12-10T02:04:23.508Z,1.27
2018-12-10T02:06:52.638Z,1.00
2018-12-10T02:09:21.784Z,0.97
2018-12-10T02:11:50.908Z,1.27
2018-12-10T02:14:21.079Z,0.77
2018-12-10T02:16:50.380Z,0.70
2018-12-10T02:19:19.630Z,1.33
2018-12-10T02:21:48.762Z,0.90
2018-12-10T02:24:18.281Z,1.17
2018-12-10T02:26:47.400Z,1.87
2018-12-10T02:29:17.547Z,0.70
2018-12-10T02:31:46.662Z,1.07
2018-12-10T02:34:15.945Z,1.00
2018-12-10T02:36:45.335Z,1.17
2018-12-10T02:39:14.911Z,0.70
2018-12-10T02:41:44.026Z,1.27
2018-12-10T02:44:13.193Z,1.33
2018-12-10T02:46:42.891Z,1.00
2018-12-10T02:49:11.990Z,1.07
2018-12-10T02:51:41.227Z,1.43
2018-12-10T02:54:10.607Z,1.23
2018-12-10T02:56:39.873Z,1.50
2018-12-10T02:59:09.050Z,1.20
2018-12-10T03:01:38.127Z,0.90
2018-12-10T03:04:07.287Z,1.20
2018-12-10T03:06:37.229Z,1.10
2018-12-10T03:09:08.302Z,1.70
2018-12-10T03:11:37.498Z,0.90
2018-12-10T03:14:07.165Z,1.53
2018-12-10T03:16:36.420Z,1.13
2018-12-10T03:19:05.534Z,1.07
2018-12-10T03:21:34.740Z,1.37
2018-12-10T03:24:03.922Z,1.27
2018-12-10T03:26:33.047Z,1.00
2018-12-10T03:29:02.150Z,1.97
2018-12-10T03:31:31.296Z,1.70
2018-12-10T03:34:00.535Z,1.33
2018-12-10T03:36:29.805Z,1.73
2018-12-10T03:38:59.003Z,1.10
2018-12-10T03:41:28.201Z,1.93
2018-12-10T03:43:57.332Z,1.13
2018-12-10T03:46:26.535Z,0.87
2018-12-10T03:48:55.735Z,1.00
2018-12-10T03:51:24.937Z,1.10
2018-12-10T03:53:54.137Z,0.97
2018-12-10T03:56:23.432Z,1.27
2018-12-10T03:58:52.735Z,0.80
2018-12-10T04:01:22.029Z,1.77
2018-12-10T04:03:51.376Z,1.33
2018-12-10T04:06:20.576Z,1.20
2018-12-10T04:08:49.746Z,1.00
2018-12-10T04:11:18.982Z,0.80
2018-12-10T04:13:48.241Z,1.33
2018-12-10T04:16:17.353Z,1.63
2018-12-10T04:18:46.475Z,1.33
2018-12-10T04:21:15.622Z,1.10
2018-12-10T04:23:44.861Z,0.80
2018-12-10T04:26:13.963Z,1.87
2018-12-10T04:28:43.049Z,1.33
2018-12-10T04:31:12.143Z,0.97
2018-12-10T04:33:41.225Z,1.00
2018-12-10T04:36:10.459Z,1.00
2018-12-10T04:38:39.605Z,1.37
2018-12-10T04:41:08.735Z,0.90
2018-12-10T04:43:37.825Z,0.93
2018-12-10T04:46:07.112Z,0.80
2018-12-10T04:48:36.312Z,0.80
2018-12-10T04:51:05.447Z,0.90
2018-12-10T04:53:34.735Z,0.87
2018-12-10T04:56:04.329Z,1.13
2018-12-10T04:58:33.435Z,1.50
2018-12-10T05:01:02.715Z,1.10
2018-12-10T05:03:32.337Z,0.83
2018-12-10T05:06:01.465Z,1.40
2018-12-10T05:08:30.565Z,1.20
2018-12-10T05:10:59.653Z,1.27
2018-12-10T05:13:28.739Z,1.30
2018-12-10T05:15:57.898Z,0.90
2018-12-10T05:18:27.018Z,1.37
2018-12-10T05:20:56.129Z,1.00
2018-12-10T05:23:26.353Z,1.00
2018-12-10T05:25:55.565Z,0.80
2018-12-10T05:28:24.727Z,1.07
2018-12-10T05:30:53.916Z,1.13
2018-12-10T05:33:23.162Z,1.23
2018-12-10T05:35:52.372Z,0.90
2018-12-10T05:38:21.525Z,0.80
2018-12-10T05:40:50.737Z,0.60
2018-12-10T05:43:19.913Z,0.67
2018-12-10T05:45:49.120Z,1.03
2018-12-10T05:48:18.352Z,0.80
2018-12-10T05:50:47.531Z,0.90
2018-12-10T05:53:16.908Z,1.27
2018-12-10T05:55:46.620Z,1.50
2018-12-10T05:58:17.656Z,1.20
2018-12-10T06:00:44.957Z,0.93
2018-12-10T06:03:14.027Z,0.93
2018-12-10T06:05:43.244Z,1.00
2018-12-10T06:08:12.411Z,0.70
2018-12-10T06:10:41.602Z,0.70
2018-12-10T06:13:10.807Z,0.47
2018-12-10T06:15:39.911Z,1.23
2018-12-10T06:18:09.097Z,1.10
2018-12-10T06:23:46.670Z,1.07
2018-12-10T06:26:17.141Z,0.80
2018-12-10T06:28:47.267Z,0.67
2018-12-10T07:00:06.316Z,1.00
2018-12-10T07:02:35.820Z,1.07
2018-12-10T07:05:05.029Z,0.60
2018-12-10T07:07:34.271Z,0.60
2018-12-10T07:10:04.033Z,0.73
2018-12-10T07:12:33.277Z,0.97
2018-12-10T07:15:02.458Z,1.20
2018-12-10T07:17:31.616Z,1.10
2018-12-10T07:20:00.881Z,1.50
2018-12-10T07:22:30.112Z,1.10
2018-12-10T07:24:59.250Z,1.20
2018-12-10T07:27:28.577Z,1.63
2018-12-10T07:29:57.837Z,1.33
2018-12-10T07:32:27.040Z,1.30
2018-12-10T07:34:56.235Z,1.23
2018-12-10T07:37:25.529Z,7.37
2018-12-10T07:39:54.780Z,1.97
2018-12-10T07:42:23.967Z,1.47
2018-12-10T07:44:53.165Z,1.50
2018-12-10T07:47:22.271Z,1.57
2018-12-10T07:49:51.524Z,1.30
2018-12-10T07:52:20.880Z,1.27
2018-12-10T07:54:50.846Z,1.90
2018-12-10T07:57:20.050Z,1.30
2018-12-10T07:59:49.221Z,1.13
2018-12-10T08:02:18.415Z,1.10
2018-12-10T08:04:47.601Z,1.30
2018-12-10T08:07:16.758Z,1.57
2018-12-10T08:09:46.018Z,1.30
2018-12-10T08:12:15.651Z,0.93
2018-12-10T08:14:45.066Z,0.83
2018-12-10T08:17:14.246Z,1.07
2018-12-10T08:19:44.045Z,1.70
2018-12-10T08:22:13.215Z,1.20
2018-12-10T08:24:42.625Z,1.00
2018-12-10T08:27:11.865Z,1.67
2018-12-10T08:29:41.976Z,0.90
2018-12-10T08:32:11.929Z,1.03
2018-12-10T08:34:48.067Z,1.00
2018-12-10T08:37:17.223Z,1.30
2018-12-10T08:39:46.448Z,1.07
2018-12-10T08:42:15.553Z,1.50
2018-12-10T08:44:44.671Z,1.30
2018-12-10T08:47:16.108Z,1.50
2018-12-10T08:49:43.445Z,0.90
2018-12-10T08:52:12.737Z,4.80
2018-12-10T08:54:42.059Z,1.17
2018-12-10T08:57:11.318Z,1.60
2018-12-10T08:59:40.535Z,1.40
2018-12-10T09:02:09.818Z,1.30
2018-12-10T09:04:39.066Z,1.17
2018-12-10T09:07:08.357Z,1.00
2018-12-10T09:09:38.222Z,1.00
2018-12-10T09:12:07.629Z,1.30
2018-12-10T09:14:37.533Z,1.27
2018-12-10T09:17:06.790Z,1.37
2018-12-10T09:19:36.037Z,0.97
2018-12-10T09:22:05.285Z,1.37
2018-12-10T09:24:34.531Z,1.83
2018-12-10T09:27:03.834Z,1.90
2018-12-10T09:29:33.224Z,1.87
2018-12-10T09:32:02.399Z,2.40
2018-12-10T09:34:32.513Z,2.73
2018-12-10T09:37:01.968Z,1.97
2018-12-10T09:39:31.166Z,1.47
2018-12-10T09:42:00.569Z,2.60
2018-12-10T09:44:31.440Z,1.57
2018-12-10T09:47:00.674Z,2.03
2018-12-10T09:49:30.081Z,1.70
2018-12-10T09:51:59.613Z,2.00
2018-12-10T09:54:29.310Z,3.00
2018-12-10T09:56:58.521Z,2.00
2018-12-10T09:59:29.313Z,2.63
2018-12-10T10:01:58.771Z,1.43
2018-12-10T10:04:28.276Z,1.47
2018-12-10T10:06:58.507Z,1.00
2018-12-10T10:09:28.726Z,1.10
2018-12-10T10:11:58.619Z,0.63
2018-12-10T10:14:28.571Z,2.00
2018-12-10T10:16:57.985Z,0.90
2018-12-10T10:19:27.205Z,1.40
2018-12-10T10:22:01.587Z,1.23
2018-12-10T10:24:31.893Z,2.03
2018-12-10T10:27:01.448Z,1.30
2018-12-10T10:29:31.346Z,1.10
2018-12-10T10:32:00.418Z,2.00
2018-12-10T10:34:29.671Z,1.70
2018-12-10T10:37:07.985Z,1.50
2018-12-10T10:39:53.318Z,2.10
2018-12-10T10:42:23.795Z,1.07
2018-12-10T10:44:52.957Z,1.07
2018-12-10T10:47:24.608Z,1.10
2018-12-10T10:49:53.759Z,1.80
2018-12-10T10:52:23.068Z,2.30
2018-12-10T10:54:53.013Z,1.87
2018-12-10T10:57:22.399Z,1.30
2018-12-10T10:59:51.930Z,1.10
2018-12-10T11:02:26.113Z,1.10
2018-12-10T11:04:55.524Z,1.20
2018-12-10T11:07:24.853Z,2.07
2018-12-10T11:09:55.533Z,4.33
2018-12-10T11:12:25.089Z,1.90
2018-12-10T11:15:01.532Z,0.97
2018-12-10T11:17:31.302Z,1.50
2018-12-10T11:20:00.544Z,1.00
2018-12-10T11:22:29.964Z,0.93
2018-12-10T11:25:00.666Z,1.73
2018-12-10T11:27:31.512Z,1.00
2018-12-10T11:30:04.900Z,1.13
2018-12-10T11:32:35.573Z,1.50
2018-12-10T11:35:05.253Z,1.00
2018-12-10T11:37:34.554Z,1.23
2018-12-10T11:40:05.806Z,1.30
2018-12-10T11:42:35.176Z,1.03
2018-12-10T11:45:04.586Z,0.83
2018-12-10T11:47:35.130Z,0.97
2018-12-10T11:50:04.441Z,0.90
2018-12-10T11:52:34.915Z,1.13
2018-12-10T11:55:05.119Z,1.50
2018-12-10T11:57:34.343Z,1.17
2018-12-10T12:00:12.136Z,1.70
2018-12-10T12:02:41.432Z,2.03
2018-12-10T12:05:15.466Z,1.50
2018-12-10T12:07:46.213Z,1.30
2018-12-10T12:10:17.769Z,1.83
2018-12-10T12:12:48.148Z,2.07
2018-12-10T12:15:17.320Z,1.87
2018-12-10T12:17:46.732Z,2.23
2018-12-10T12:20:16.360Z,1.77
2018-12-10T12:22:45.640Z,1.27
2018-12-10T12:25:15.021Z,1.20
2018-12-10T12:27:44.412Z,4.00
2018-12-10T12:30:14.019Z,2.53
2018-12-10T12:32:44.152Z,2.10
2018-12-10T12:35:13.845Z,1.27
2018-12-10T12:37:43.044Z,1.90
2018-12-10T12:40:12.445Z,1.93
2018-12-10T12:42:41.745Z,0.83
2018-12-10T12:45:11.876Z,1.37
2018-12-10T12:47:41.166Z,0.97
2018-12-10T12:50:10.706Z,1.60
2018-12-10T12:52:39.927Z,1.07
2018-12-10T12:55:10.196Z,1.10
2018-12-10T12:57:39.441Z,1.17
2018-12-10T13:00:09.024Z,0.53
2018-12-10T13:02:39.181Z,1.00
2018-12-10T13:05:08.675Z,1.27
2018-12-10T13:07:37.932Z,1.30
2018-12-10T13:10:08.864Z,1.07
2018-12-10T13:12:38.207Z,2.97
2018-12-10T13:15:08.889Z,0.80
2018-12-10T13:17:38.173Z,1.30
2018-12-10T13:20:08.003Z,3.57
2018-12-10T13:22:37.301Z,1.47
2018-12-10T13:25:07.111Z,1.40
2018-12-10T13:27:37.233Z,1.93
2018-12-10T13:30:07.211Z,1.80
2018-12-10T13:32:36.979Z,3.70
2018-12-10T13:35:06.504Z,2.00
2018-12-10T13:37:45.873Z,2.17
2018-12-10T13:40:11.744Z,2.33
2018-12-10T13:42:43.281Z,2.30
2018-12-10T13:45:13.426Z,1.40
2018-12-10T13:47:42.560Z,1.77
2018-12-10T13:50:11.838Z,2.53
2018-12-10T13:52:41.467Z,2.43
2018-12-10T13:55:10.725Z,2.23
2018-12-10T13:57:40.070Z,1.93
2018-12-10T14:00:11.329Z,1.47
2018-12-10T14:02:42.397Z,1.60
2018-12-10T14:05:14.609Z,2.53
2018-12-10T14:07:48.056Z,2.80
2018-12-10T14:10:14.499Z,1.40
2018-12-10T14:12:48.036Z,1.67
2018-12-10T14:15:17.327Z,2.07
2018-12-10T14:17:47.982Z,1.63
2018-12-10T14:20:18.070Z,2.80
2018-12-10T14:22:47.287Z,2.23
2018-12-10T14:25:31.342Z,2.47
2018-12-10T14:28:00.899Z,2.17
2018-12-10T14:30:30.032Z,1.90
2018-12-10T14:32:59.692Z,1.57
2018-12-10T14:35:29.097Z,2.10
2018-12-10T14:37:58.368Z,1.40
2018-12-10T14:40:27.784Z,2.63
2018-12-10T14:42:58.684Z,3.30
2018-12-10T14:45:27.884Z,3.33
2018-12-10T14:47:58.720Z,2.60
2018-12-10T14:50:27.921Z,2.47
2018-12-10T14:52:57.178Z,3.23
2018-12-10T14:55:26.242Z,3.03
2018-12-10T14:57:56.334Z,3.20
2018-12-10T15:00:25.534Z,2.93
2018-12-10T15:02:57.657Z,2.43
2018-12-10T15:05:26.554Z,3.67
2018-12-10T15:07:56.003Z,2.03
2018-12-10T15:10:25.238Z,2.80
2018-12-10T15:12:56.261Z,3.00
2018-12-10T15:15:25.681Z,2.77
2018-12-10T15:17:56.592Z,4.03
2018-12-10T15:20:27.295Z,2.20
2018-12-10T15:22:56.679Z,2.60
2018-12-10T15:25:26.761Z,2.70
2018-12-10T15:27:55.980Z,3.10
2018-12-10T15:30:26.105Z,3.73
2018-12-10T15:32:55.969Z,3.10
2018-12-10T15:35:27.857Z,2.57
2018-12-10T15:37:57.495Z,3.27
2018-12-10T15:40:27.202Z,2.23
2018-12-10T15:42:56.340Z,2.43
2018-12-10T15:45:25.482Z,3.93
2018-12-10T15:47:54.663Z,2.73
2018-12-10T15:50:24.454Z,3.27
2018-12-10T15:52:53.588Z,5.63
2018-12-10T15:55:22.961Z,5.20
2018-12-10T15:57:53.743Z,3.60
2018-12-10T16:00:23.008Z,9.43
2018-12-10T16:02:52.279Z,7.10
2018-12-10T16:05:22.045Z,5.60
2018-12-10T16:07:51.753Z,4.73
2018-12-10T16:10:21.782Z,3.63
2018-12-10T16:12:51.010Z,5.07
2018-12-10T16:15:20.247Z,6.70
2018-12-10T16:17:49.723Z,3.63
2018-12-10T16:20:19.220Z,4.90
2018-12-10T16:22:55.423Z,3.37
2018-12-10T16:25:24.944Z,3.80
2018-12-10T16:27:55.310Z,3.63
2018-12-10T16:30:24.891Z,5.40
2018-12-10T16:32:54.871Z,4.20
2018-12-10T16:35:24.289Z,6.30
2018-12-10T16:37:54.476Z,6.07
2018-12-10T16:40:23.818Z,5.43
2018-12-10T16:42:53.717Z,5.73
2018-12-10T16:45:22.953Z,5.07
2018-12-10T16:47:52.372Z,7.03
2018-12-10T16:50:21.748Z,8.37
2018-12-10T16:52:52.473Z,7.90
2018-12-10T16:55:21.758Z,12.40
2018-12-10T16:57:51.461Z,17.97
2018-12-10T17:00:20.681Z,19.07
2018-12-10T17:02:49.897Z,12.40
2018-12-10T17:05:19.178Z,11.20
2018-12-10T17:07:50.025Z,7.00
2018-12-10T17:10:26.283Z,5.97
2018-12-10T17:12:55.489Z,4.57
2018-12-10T17:15:32.109Z,5.53
2018-12-10T17:32:45.546Z,7.17
2018-12-10T17:35:14.614Z,8.43
2018-12-10T17:37:43.979Z,5.87
2018-12-10T17:40:13.373Z,5.70
2018-12-10T17:42:42.514Z,4.97
2018-12-10T17:45:11.788Z,5.80
2018-12-10T17:47:41.078Z,5.33
2018-12-10T17:50:13.060Z,4.90
2018-12-10T17:52:42.365Z,6.00
2018-12-10T17:55:11.777Z,6.47
2018-12-10T17:57:41.054Z,5.17
2018-12-10T18:00:12.007Z,4.70
2018-12-10T18:02:41.226Z,4.73
2018-12-10T18:05:10.485Z,4.40
2018-12-10T18:07:39.680Z,5.57
2018-12-10T18:10:09.097Z,6.87
2018-12-10T18:12:38.348Z,7.53
2018-12-10T18:15:08.322Z,6.27
2018-12-10T18:17:37.702Z,5.80
2018-12-10T18:20:09.464Z,5.63
2018-12-10T18:22:39.175Z,5.30
2018-12-10T18:25:08.483Z,4.63
2018-12-10T18:27:38.439Z,5.63
2018-12-10T18:30:10.257Z,6.30
2018-12-10T18:32:39.598Z,7.00
2018-12-10T18:35:10.604Z,5.03
2018-12-10T18:37:40.000Z,4.93
2018-12-10T18:40:12.470Z,5.47
2018-12-10T18:42:41.888Z,6.27
2018-12-10T18:45:15.569Z,5.73
2018-12-10T18:47:44.847Z,6.37
2018-12-10T18:50:14.267Z,4.77
2018-12-10T18:52:43.642Z,6.43
2018-12-10T18:55:12.836Z,11.17
2018-12-10T18:57:48.417Z,9.07
2018-12-10T19:00:17.619Z,8.90
2018-12-10T19:02:46.843Z,6.40
2018-12-10T19:05:17.086Z,6.43
2018-12-10T19:07:46.612Z,6.17
2018-12-10T19:10:16.789Z,8.33
2018-12-10T19:12:45.995Z,10.40
2018-12-10T19:15:15.753Z,9.87
2018-12-10T19:17:45.780Z,8.33
2018-12-10T19:20:16.026Z,6.43
2018-12-10T19:22:45.988Z,6.00
2018-12-10T19:25:15.226Z,10.07
2018-12-10T19:27:44.469Z,7.10
2018-12-10T19:30:13.636Z,6.30
2018-12-10T19:32:42.863Z,4.97
2018-12-10T19:35:12.113Z,5.63
2018-12-10T19:37:42.566Z,6.77
2018-12-10T19:40:11.705Z,10.67
2018-12-10T19:42:40.874Z,18.07
2018-12-10T19:45:10.981Z,12.90
2018-12-10T19:47:40.138Z,9.80
2018-12-10T19:50:09.512Z,10.50
2018-12-10T19:52:38.599Z,25.13
2018-12-10T19:55:08.739Z,17.57
2018-12-10T19:57:38.101Z,11.23
2018-12-10T20:00:08.759Z,10.67
2018-12-10T20:02:37.968Z,7.97
2018-12-10T20:05:08.556Z,6.07
2018-12-10T20:07:37.828Z,6.47
2018-12-10T20:10:08.932Z,8.70
2018-12-10T20:12:38.135Z,10.83
2018-12-10T20:15:08.412Z,6.97
2018-12-10T20:17:37.698Z,5.83
2018-12-10T20:20:08.338Z,6.07
2018-12-10T20:22:37.641Z,6.47
2018-12-10T20:25:08.685Z,6.60
2018-12-10T20:27:37.940Z,4.80
2018-12-10T20:30:07.394Z,3.77
2018-12-10T20:32:54.357Z,3.70
2018-12-10T20:35:23.779Z,3.47
2018-12-10T20:37:58.206Z,3.37
2018-12-10T20:40:27.314Z,4.23
2018-12-10T20:45:32.010Z,8.23
2018-12-10T20:48:01.256Z,7.07
2018-12-10T20:50:30.465Z,5.37
2018-12-10T20:52:59.563Z,3.80
2018-12-10T20:55:28.733Z,3.50
2018-12-10T20:57:57.866Z,3.37
2018-12-10T21:00:27.041Z,2.87
2018-12-10T21:02:56.128Z,3.73
2018-12-10T21:05:26.358Z,4.07
2018-12-10T21:07:55.587Z,2.80
2018-12-10T21:10:26.746Z,4.13
2018-12-10T21:12:55.877Z,4.43
2018-12-10T21:15:26.149Z,11.77
2018-12-10T21:17:55.560Z,14.73
2018-12-10T21:20:24.795Z,13.17
2018-12-10T21:22:53.955Z,8.73
2018-12-10T21:25:23.808Z,7.23
2018-12-10T21:27:52.904Z,5.30
2018-12-10T21:30:22.024Z,4.90
2018-12-10T21:32:51.293Z,3.67
2018-12-10T21:35:21.112Z,3.17
2018-12-10T21:37:50.499Z,3.27
2018-12-10T21:40:19.636Z,2.53
2018-12-10T21:42:49.000Z,2.97
2018-12-10T21:45:19.791Z,2.83
2018-12-10T21:47:49.104Z,3.73
2018-12-10T21:50:18.909Z,3.40
2018-12-10T21:52:47.991Z,3.30
2018-12-10T21:55:17.811Z,3.03
2018-12-10T21:57:47.617Z,3.40
2018-12-10T22:00:17.049Z,3.20
2018-12-10T22:02:46.225Z,2.90
2018-12-10T22:05:15.969Z,2.97
2018-12-10T22:07:45.121Z,3.53
2018-12-10T22:10:15.164Z,3.43
2018-12-10T22:12:45.764Z,2.30
2018-12-10T22:15:14.959Z,2.57
2018-12-10T22:17:44.304Z,2.83
2018-12-10T22:20:13.460Z,3.00
2018-12-10T22:22:42.775Z,3.00
2018-12-10T22:25:11.964Z,3.57
2018-12-10T22:27:41.878Z,2.87
2018-12-10T22:30:12.547Z,3.60
2018-12-10T22:32:42.150Z,2.63
2018-12-10T22:35:11.202Z,4.60
2018-12-10T22:37:40.312Z,2.70
2018-12-10T22:40:09.665Z,2.93
2018-12-10T22:42:38.806Z,2.83
2018-12-10T22:45:10.169Z,3.10
2018-12-10T22:47:39.552Z,3.90
2018-12-10T22:50:09.616Z,3.50
2018-12-10T22:52:38.814Z,4.30
2018-12-10T23:12:05.043Z,5.43
2018-12-10T23:14:34.875Z,6.23
2018-12-10T23:17:04.233Z,4.20
2018-12-10T23:19:33.444Z,3.47
2018-12-10T23:22:03.348Z,2.73
2018-12-10T23:24:32.650Z,2.53
2018-12-10T23:27:01.742Z,2.30
2018-12-10T23:29:30.927Z,3.07
2018-12-10T23:32:04.954Z,2.50
2018-12-10T23:34:34.016Z,2.60
2018-12-10T23:37:03.421Z,2.53
2018-12-10T23:39:33.347Z,3.00
2018-12-10T23:42:02.453Z,3.17
2018-12-10T23:44:36.587Z,2.33
2018-12-10T23:47:05.778Z,2.93
2018-12-10T23:49:34.958Z,2.73
2018-12-10T23:52:04.074Z,2.30
2018-12-10T23:54:33.174Z,2.00
2018-12-10T23:57:02.355Z,2.30
2018-12-10T23:59:31.477Z,2.70
